Time;durP1;ratioP1;P1;durP2;ratioP2;P2;SDS_P1;SDS_P2;PMS_P1;PMS_P2;Temp;Humidity;BMP_temperature;BMP_pressure;BME280_temperature;BME280_humidity;BME280_pressure;Samples;Min_cycle;Max_cycle;Signal;HPM_P1;HPM_P2
2022/09/22 00:00:59;;;;;;;2.57;2.20;;;13.30;65.50;;;-142.21;86.95;112049.66;5067915;28;20452;-70
2022/09/22 00:03:29;;;;;;;3.40;2.43;;;13.20;65.30;;;-142.21;86.85;112049.66;5068515;28;20559;-70
2022/09/22 00:06:04;;;;;;;4.33;2.40;;;13.20;65.10;;;-142.21;87.81;112049.66;5068167;28;20485;-70
2022/09/22 00:08:37;;;;;;;4.90;2.37;;;13.20;65.40;;;-142.21;87.39;112049.66;5068242;28;20442;-70
2022/09/22 00:11:08;;;;;;;4.43;2.50;;;13.20;65.20;;;-142.21;87.94;112049.66;5067928;28;20435;-69
2022/09/22 00:13:36;;;;;;;3.03;2.30;;;13.10;65.30;;;-142.21;87.65;112049.66;5068353;28;20439;-69
2022/09/22 00:16:08;;;;;;;3.10;2.20;;;13.20;65.30;;;-142.21;87.53;112049.66;5067206;28;20444;-69
2022/09/22 00:18:36;;;;;;;3.77;2.10;;;13.10;65.20;;;-142.21;87.14;112049.66;5068337;28;20886;-71
2022/09/22 00:21:09;;;;;;;4.17;2.70;;;13.10;65.10;;;-142.21;87.45;112049.66;5067152;28;20447;-69
2022/09/22 00:23:37;;;;;;;2.73;2.47;;;13.10;65.00;;;-142.21;87.29;112049.66;5067557;28;20432;-70
2022/09/22 00:26:06;;;;;;;2.40;2.20;;;13.10;64.90;;;-142.21;87.28;112049.66;5067169;28;20475;-71
2022/09/22 00:28:34;;;;;;;2.30;2.10;;;13.10;64.80;;;-142.21;87.79;112049.66;5068044;28;20938;-69
2022/09/22 00:31:05;;;;;;;2.70;2.50;;;13.00;64.80;;;-142.21;87.34;112049.66;5067259;28;20447;-70
2022/09/22 00:33:32;;;;;;;3.20;2.27;;;13.00;64.90;;;-142.21;87.29;112049.66;5046930;28;20496;-69
2022/09/22 00:36:02;;;;;;;5.53;2.40;;;12.90;64.60;;;-142.21;87.40;112049.66;5034016;28;20457;-69
2022/09/22 00:38:32;;;;;;;3.17;2.43;;;12.90;64.60;;;-142.21;87.33;112049.66;5034461;28;20449;-69
2022/09/22 00:41:00;;;;;;;2.53;2.33;;;12.90;64.60;;;-142.21;87.28;112049.66;5033689;28;20452;-69
2022/09/22 00:43:31;;;;;;;5.30;2.70;;;12.80;64.50;;;-142.21;87.24;112049.66;5034541;28;20445;-69
2022/09/22 00:46:03;;;;;;;2.53;2.30;;;12.80;64.50;;;-142.21;87.24;112049.66;5033928;28;20445;-69
2022/09/22 00:48:36;;;;;;;3.80;2.30;;;12.80;64.50;;;-142.21;87.37;112049.66;5035006;28;20452;-70
2022/09/22 00:51:09;;;;;;;3.53;2.27;;;12.70;64.50;;;-142.21;87.36;112049.66;5033397;28;20480;-69
2022/09/22 00:53:38;;;;;;;3.10;2.80;;;12.70;64.70;;;-142.21;87.23;112049.66;5002244;28;20964;-69
2022/09/22 00:56:09;;;;;;;2.80;2.33;;;12.70;64.60;;;-142.21;87.52;112049.66;5033257;28;20453;-71
2022/09/22 00:58:43;;;;;;;3.80;2.70;;;12.70;64.70;;;-142.21;87.71;112049.66;5034174;28;20452;-71
2022/09/22 01:01:11;;;;;;;5.00;2.57;;;12.70;64.80;;;-142.21;87.54;112049.66;5032837;28;20438;-70
2022/09/22 01:03:39;;;;;;;2.50;2.30;;;12.60;64.50;;;-142.21;88.09;112049.66;5034217;28;20453;-71
2022/09/22 01:06:11;;;;;;;3.13;2.17;;;12.60;64.70;;;-142.21;88.28;112049.66;5033177;28;20449;-69
2022/09/22 01:08:42;;;;;;;5.57;2.40;;;12.60;64.80;;;-142.21;88.89;112049.66;5033875;28;20450;-68
2022/09/22 01:11:10;;;;;;;5.40;2.37;;;12.50;65.10;;;-142.21;88.79;112049.66;5033457;28;20503;-69
2022/09/22 01:13:50;;;;;;;2.73;2.10;;;12.50;64.80;;;-142.21;88.12;112049.66;5033745;28;20449;-70
2022/09/22 01:16:38;;;;;;;3.67;2.30;;;12.50;64.90;;;-142.21;88.11;112049.66;5033306;28;20764;-70
2022/09/22 01:19:56;;;;;;;3.43;2.03;;;12.50;64.70;;;-142.21;88.64;112049.66;5033116;28;20920;-69
2022/09/22 01:22:56;;;;;;;3.13;2.30;;;12.40;64.70;;;-142.21;88.92;112049.66;5029890;28;20484;-70
2022/09/22 01:26:11;;;;;;;2.37;2.10;;;12.30;65.00;;;-142.21;89.13;112049.66;5032514;28;20476;-70
2022/09/22 01:29:22;;;;;;;2.90;2.13;;;12.30;65.10;;;-142.21;89.08;112049.66;4990700;28;20450;-70
2022/09/22 01:32:02;;;;;;;2.03;1.93;;;12.20;65.00;;;-142.21;88.95;112049.66;5033506;28;20448;-69
2022/09/22 01:34:35;;;;;;;4.20;2.07;;;12.20;65.70;;;-142.21;88.92;112049.66;5033749;28;20463;-69
2022/09/22 01:37:13;;;;;;;2.07;1.87;;;12.20;65.10;;;-142.21;88.76;112049.66;5033213;28;20705;-70
2022/09/22 01:39:45;;;;;;;2.83;2.30;;;12.20;65.10;;;-142.21;89.27;112049.66;5020066;28;20770;-70
2022/09/22 01:42:22;;;;;;;2.73;2.10;;;12.10;65.20;;;-142.21;88.94;112049.66;5033082;28;20478;-70
2022/09/22 01:44:55;;;;;;;2.63;2.10;;;12.10;65.20;;;-142.21;89.03;112049.66;5032340;28;20796;-69
2022/09/22 01:47:33;;;;;;;3.03;2.30;;;12.10;65.30;;;-142.21;89.61;112049.66;5027381;28;20948;-69
2022/09/22 01:50:07;;;;;;;7.27;2.63;;;12.10;65.40;;;-142.21;89.49;112049.66;5032801;28;20433;-69
2022/09/22 01:52:42;;;;;;;2.73;2.00;;;12.00;65.30;;;-142.21;89.42;112049.66;5033734;28;20425;-69
2022/09/22 01:55:19;;;;;;;3.20;2.27;;;12.00;65.40;;;-142.21;89.53;112049.66;5032757;28;20437;-70
2022/09/22 01:57:54;;;;;;;3.00;2.50;;;12.00;65.40;;;-142.21;89.69;112049.66;5033052;28;20444;-71
2022/09/22 02:00:22;;;;;;;2.57;2.13;;;12.00;65.40;;;-142.21;89.90;112049.66;5032452;28;20437;-70
2022/09/22 02:02:58;;;;;;;4.27;2.20;;;12.00;65.40;;;-142.21;89.97;112049.66;5032858;28;20488;-70
2022/09/22 02:05:32;;;;;;;3.13;2.30;;;11.90;65.50;;;-142.21;89.87;112049.66;5032269;28;21365;-70
2022/09/22 02:08:04;;;;;;;2.90;2.30;;;11.90;65.50;;;-142.21;89.54;112049.66;5033077;28;20437;-70
2022/09/22 02:10:40;;;;;;;2.43;2.23;;;11.90;65.40;;;-142.21;89.63;112049.66;5032221;28;20444;-69
2022/09/22 02:13:07;;;;;;;3.57;2.20;;;11.90;65.40;;;-142.21;89.59;112049.66;5032133;28;20447;-68
2022/09/22 02:18:26;;;;;;;3.23;2.70;;;11.90;65.60;;;-142.21;90.01;112049.66;5031997;28;20491;-70
2022/09/22 02:20:54;;;;;;;6.17;2.70;;;11.90;65.80;;;-142.21;89.95;112049.66;5030651;28;20444;-69
2022/09/22 02:23:21;;;;;;;2.40;2.20;;;11.90;65.80;;;-142.21;90.08;112049.66;5032417;28;20611;-70
2022/09/22 02:25:50;;;;;;;3.63;2.40;;;11.90;65.80;;;-142.21;90.42;112049.66;5035636;28;20524;-69
2022/09/22 02:28:23;;;;;;;5.57;2.40;;;11.90;65.80;;;-142.21;91.12;112049.66;5040203;28;20451;-70
2022/09/22 02:30:56;;;;;;;3.00;2.50;;;11.80;66.00;;;-142.21;91.57;112049.66;5031777;28;20445;-70
2022/09/22 02:33:28;;;;;;;3.53;2.57;;;11.80;66.30;;;-142.21;91.91;112049.66;5042737;28;20483;-70
2022/09/22 02:36:07;;;;;;;4.60;2.60;;;11.80;66.50;;;-142.21;91.84;112049.66;5052648;28;20442;-70
2022/09/22 02:38:44;;;;;;;3.40;2.70;;;11.80;66.60;;;-142.21;92.61;112049.66;5044740;28;20447;-70
2022/09/22 02:41:21;;;;;;;4.33;2.93;;;11.80;67.00;;;-142.21;92.94;112049.66;5051674;28;20436;-70
2022/09/22 02:43:58;;;;;;;2.80;2.50;;;11.70;67.00;;;-142.21;93.31;112049.66;5052208;28;20476;-70
2022/09/22 02:46:35;;;;;;;3.47;2.47;;;11.80;67.20;;;-142.21;93.61;112049.66;5031899;28;20422;-70
2022/09/22 02:49:08;;;;;;;4.87;2.70;;;11.80;67.40;;;-142.21;93.63;112049.66;5046496;28;20447;-69
2022/09/22 02:51:36;;;;;;;3.70;2.73;;;11.80;67.50;;;-142.21;93.21;112049.66;5052126;28;20451;-69
2022/09/22 02:54:03;;;;;;;3.90;2.87;;;11.70;67.20;;;-142.21;93.12;112049.66;5052236;28;20657;-69
2022/09/22 02:56:34;;;;;;;3.00;2.70;;;11.70;67.10;;;-142.21;93.35;112049.66;5050833;28;20453;-69
2022/09/22 02:59:01;;;;;;;4.13;3.10;;;11.70;67.30;;;-142.21;93.91;112049.66;5057641;28;20531;-71
2022/09/22 03:01:28;;;;;;;2.90;2.60;;;11.70;67.30;;;-142.21;93.73;112049.66;5051065;28;20547;-69
2022/09/22 03:03:55;;;;;;;4.83;2.67;;;11.70;67.30;;;-142.21;93.82;112049.66;5051852;28;20496;-70
2022/09/22 03:06:24;;;;;;;3.40;2.43;;;11.60;67.20;;;-142.21;93.48;112049.66;5051701;28;20444;-71
2022/09/22 03:08:51;;;;;;;3.83;2.50;;;11.60;67.20;;;-142.21;92.89;112049.66;5051667;28;20780;-70
2022/09/22 03:11:18;;;;;;;3.00;2.53;;;11.60;67.20;;;-142.21;92.86;112049.66;5050780;28;20444;-70
2022/09/22 03:13:45;;;;;;;3.00;2.50;;;11.60;67.20;;;-142.21;92.31;112049.66;5052045;28;20452;-70
2022/09/22 03:16:13;;;;;;;2.97;2.67;;;11.70;67.00;;;-142.21;92.26;112049.66;5050982;28;20449;-69
2022/09/22 03:18:40;;;;;;;5.13;2.50;;;11.70;67.60;;;-142.21;92.22;112049.66;5051524;28;20436;-70
2022/09/22 03:21:07;;;;;;;3.00;2.70;;;11.70;67.00;;;-142.21;92.22;112049.66;5051796;28;20449;-70
2022/09/22 03:23:35;;;;;;;2.50;2.30;;;11.70;66.90;;;-142.21;91.76;112049.66;5051843;28;20575;-70
2022/09/22 03:26:03;;;;;;;2.97;2.70;;;11.70;66.70;;;-142.21;92.00;112049.66;5051420;28;20452;-70
2022/09/22 03:28:30;;;;;;;2.60;2.40;;;11.60;66.70;;;-142.21;92.53;112049.66;5053604;28;21017;-69
2022/09/22 03:30:57;;;;;;;3.33;2.30;;;11.60;67.00;;;-142.21;92.90;112049.66;5063585;28;20458;-69
2022/09/22 03:33:24;;;;;;;3.30;2.90;;;11.60;67.10;;;-142.21;93.29;112049.66;5039546;28;21022;-69
2022/09/22 03:35:51;;;;;;;3.07;2.63;;;11.60;67.20;;;-142.21;93.42;112049.66;5031525;28;20444;-69
2022/09/22 03:38:18;;;;;;;2.97;2.60;;;11.50;67.10;;;-142.21;93.32;112049.66;5031046;28;20964;-69
2022/09/22 03:40:51;;;;;;;3.67;2.63;;;11.50;67.10;;;-142.21;93.14;112049.66;5031234;28;20441;-69
2022/09/22 03:43:19;;;;;;;2.80;2.50;;;11.50;67.10;;;-142.21;93.15;112049.66;5031245;28;20496;-69
2022/09/22 03:45:46;;;;;;;3.90;2.70;;;11.50;67.10;;;-142.21;93.32;112049.66;5031508;28;20455;-69
2022/09/22 03:48:13;;;;;;;3.37;2.70;;;11.50;67.10;;;-142.21;93.31;112049.66;5031196;28;20799;-69
2022/09/22 03:50:41;;;;;;;4.77;2.97;;;11.50;67.10;;;-142.21;93.12;112049.66;5031319;28;20937;-70
2022/09/22 03:53:08;;;;;;;4.10;2.93;;;11.50;67.90;;;-142.21;93.52;112049.66;5031755;28;20467;-69
2022/09/22 03:55:35;;;;;;;2.73;2.50;;;11.50;67.30;;;-142.21;93.60;112049.66;5030658;28;20454;-69
2022/09/22 03:58:04;;;;;;;3.77;2.90;;;11.50;67.40;;;-142.21;93.15;112049.66;5031344;28;20461;-69
2022/09/22 04:00:31;;;;;;;3.00;2.70;;;11.50;67.20;;;-142.21;93.91;112049.66;5030833;28;20449;-69
2022/09/22 04:02:58;;;;;;;3.47;2.83;;;11.50;67.60;;;-142.21;94.24;112049.66;5031869;28;20492;-69
2022/09/22 04:05:26;;;;;;;4.70;3.33;;;11.50;67.60;;;-142.21;94.34;112049.66;5031252;28;20447;-70
2022/09/22 04:07:53;;;;;;;3.60;2.83;;;11.40;67.60;;;-142.21;94.37;112049.66;5031927;28;20920;-69
2022/09/22 04:10:20;;;;;;;4.27;3.20;;;11.40;67.70;;;-142.21;94.00;112049.66;5034754;28;20448;-69
2022/09/22 04:12:47;;;;;;;3.17;2.87;;;11.40;67.60;;;-142.21;93.67;112049.66;5035600;28;20769;-69
2022/09/22 04:15:16;;;;;;;3.80;3.40;;;11.40;68.20;;;-142.21;93.48;112049.66;5034254;28;20448;-70
2022/09/22 04:17:44;;;;;;;4.43;3.10;;;11.40;67.30;;;-142.21;94.10;112049.66;5035312;28;20451;-70
2022/09/22 04:20:15;;;;;;;3.30;2.93;;;11.40;67.60;;;-142.21;93.55;112049.66;5035202;28;20866;-69
2022/09/22 04:22:42;;;;;;;4.60;2.77;;;11.40;67.50;;;-142.21;93.58;112049.66;5033695;28;20477;-69
2022/09/22 04:25:10;;;;;;;3.63;3.10;;;11.30;67.30;;;-142.21;93.47;112049.66;5035062;28;20822;-69
2022/09/22 04:27:37;;;;;;;3.47;3.13;;;11.30;67.20;;;-142.21;93.21;112049.66;5034439;28;20967;-70
2022/09/22 04:30:05;;;;;;;3.13;2.80;;;11.30;67.10;;;-142.21;93.21;112049.66;5034699;28;20540;-70
2022/09/22 04:32:34;;;;;;;4.40;3.17;;;11.20;66.90;;;-142.21;92.83;112049.66;5037722;28;20582;-70
2022/09/22 04:35:01;;;;;;;3.47;3.10;;;11.20;66.90;;;-142.21;92.83;112049.66;5054505;28;20447;-70
2022/09/22 04:37:28;;;;;;;5.03;3.20;;;11.20;66.90;;;-142.21;92.63;112049.66;5053609;28;20955;-69
2022/09/22 04:39:55;;;;;;;3.50;3.20;;;11.20;66.90;;;-142.21;93.00;112049.66;5054467;28;20459;-70
2022/09/22 04:42:23;;;;;;;3.10;2.90;;;11.20;67.00;;;-142.21;93.43;112049.66;5053589;28;20783;-69
2022/09/22 04:44:50;;;;;;;6.70;3.07;;;11.20;67.10;;;-142.21;93.38;112049.66;5054402;28;20452;-69
2022/09/22 04:47:17;;;;;;;4.03;3.00;;;11.10;67.10;;;-142.21;93.57;112049.66;5054130;28;20444;-69
2022/09/22 04:49:45;;;;;;;3.63;3.00;;;11.10;67.10;;;-142.21;93.52;112049.66;5052656;28;20445;-70
2022/09/22 04:52:12;;;;;;;4.37;2.90;;;11.10;67.30;;;-142.21;93.61;112049.66;5054350;28;20458;-69
2022/09/22 04:54:39;;;;;;;3.17;2.70;;;11.00;67.30;;;-142.21;94.12;112049.66;5053846;28;20443;-70
2022/09/22 04:57:06;;;;;;;4.57;3.17;;;11.00;67.50;;;-142.21;94.43;112049.66;5053988;28;20456;-70
2022/09/22 04:59:34;;;;;;;4.73;3.30;;;11.00;67.80;;;-142.21;94.46;112049.66;5053459;28;20444;-69
2022/09/22 05:02:01;;;;;;;4.17;2.87;;;11.00;67.80;;;-142.21;94.52;112049.66;5053772;28;20920;-69
2022/09/22 05:04:29;;;;;;;5.00;3.77;;;11.00;67.90;;;-142.21;94.60;112049.66;5053354;28;20847;-69
2022/09/22 05:06:57;;;;;;;5.87;4.00;;;11.00;67.70;;;-142.21;94.58;112049.66;5053784;28;20448;-69
2022/09/22 05:09:24;;;;;;;4.50;3.40;;;11.00;67.80;;;-142.21;95.15;112049.66;5053717;28;20452;-69
2022/09/22 05:11:52;;;;;;;4.33;3.70;;;11.00;67.80;;;-142.21;95.05;112049.66;5053299;28;20883;-69
2022/09/22 05:14:19;;;;;;;3.83;3.00;;;10.90;67.70;;;-142.21;95.33;112049.66;5053086;28;20821;-69
2022/09/22 05:16:46;;;;;;;4.07;3.00;;;10.90;68.00;;;-142.21;95.52;112049.66;5054230;28;20519;-70
2022/09/22 05:19:13;;;;;;;3.67;3.07;;;10.90;68.10;;;-142.21;95.47;112049.66;5053969;28;20535;-71
2022/09/22 05:21:41;;;;;;;3.50;3.20;;;10.90;68.00;;;-142.21;95.23;112049.66;5053368;28;20506;-71
2022/09/22 05:24:09;;;;;;;5.73;3.10;;;10.90;68.10;;;-142.21;95.98;112049.66;5053802;28;20484;-71
2022/09/22 05:26:36;;;;;;;5.77;3.57;;;10.80;68.00;;;-142.21;95.60;112049.66;5053201;28;20483;-71
2022/09/22 05:29:05;;;;;;;3.30;3.00;;;10.90;68.20;;;-142.21;95.26;112049.66;5054078;28;20531;-71
2022/09/22 05:31:32;;;;;;;4.03;3.37;;;10.90;68.10;;;-142.21;95.11;112049.66;5052436;28;20827;-71
2022/09/22 05:33:59;;;;;;;4.40;3.10;;;10.90;68.10;;;-142.21;95.60;112049.66;5053194;28;20480;-71
2022/09/22 05:36:26;;;;;;;3.53;2.83;;;10.90;68.20;;;-142.21;95.74;112049.66;5052558;28;20445;-73
2022/09/22 05:38:53;;;;;;;4.73;3.30;;;10.90;68.20;;;-142.21;95.62;112049.66;5053136;28;20452;-71
2022/09/22 05:41:22;;;;;;;5.00;3.20;;;10.90;68.20;;;-142.21;95.46;112049.66;5051830;28;20444;-72
2022/09/22 05:43:49;;;;;;;3.50;3.20;;;10.90;68.20;;;-142.21;95.73;112049.66;5053202;28;20579;-72
2022/09/22 05:46:16;;;;;;;3.53;3.13;;;10.90;68.20;;;-142.21;95.96;112049.66;5053136;28;20459;-71
2022/09/22 05:48:43;;;;;;;3.57;3.20;;;10.90;68.20;;;-142.21;96.17;112049.66;5053501;28;20444;-71
2022/09/22 05:51:10;;;;;;;3.30;3.00;;;10.90;68.30;;;-142.21;96.37;112049.66;5055571;28;20535;-71
2022/09/22 05:53:38;;;;;;;5.43;3.37;;;11.00;68.70;;;-142.21;96.80;112049.66;5066549;28;20449;-71
2022/09/22 05:56:05;;;;;;;4.23;3.60;;;11.00;69.50;;;-142.21;96.88;112049.66;5052520;28;20449;-70
2022/09/22 05:58:34;;;;;;;4.17;3.40;;;11.00;68.90;;;-142.21;96.88;112049.66;5051900;28;20450;-70
2022/09/22 06:01:03;;;;;;;7.60;3.87;;;11.00;68.90;;;-142.21;97.56;112049.66;5072500;28;20442;-71
2022/09/22 06:03:30;;;;;;;5.07;3.80;;;11.00;69.00;;;-142.21;98.02;112049.66;5066716;28;20484;-71
2022/09/22 06:05:57;;;;;;;4.30;3.80;;;11.10;69.50;;;-142.21;98.00;112049.66;5052605;28;20448;-71
2022/09/22 06:08:24;;;;;;;4.50;3.87;;;11.10;69.60;;;-142.21;98.49;112049.66;5052168;28;20638;-71
2022/09/22 06:10:51;;;;;;;5.10;3.70;;;11.10;70.00;;;-142.21;99.19;112049.66;5062534;28;20446;-71
2022/09/22 06:13:18;;;;;;;6.50;3.67;;;11.20;70.10;;;-142.21;99.05;112049.66;5072383;28;20435;-70
2022/09/22 06:15:47;;;;;;;6.10;3.47;;;11.20;70.20;;;-142.21;99.64;112049.66;5073238;28;20444;-71
2022/09/22 06:18:17;;;;;;;4.27;3.80;;;11.30;70.40;;;-142.21;99.57;112049.66;5068962;28;20531;-71
2022/09/22 06:20:45;;;;;;;5.10;3.63;;;11.40;70.50;;;-142.21;99.60;112049.66;5053505;28;20444;-70
2022/09/22 06:23:14;;;;;;;4.90;3.90;;;11.50;70.50;;;-142.21;99.19;112049.66;5072951;28;20536;-70
2022/09/22 06:25:42;;;;;;;3.97;3.57;;;11.50;70.50;;;-142.21;99.06;112049.66;5052211;28;20453;-70
2022/09/22 06:28:13;;;;;;;3.90;3.50;;;11.60;70.50;;;-142.21;99.45;112049.66;5039946;28;20506;-70
2022/09/22 06:30:41;;;;;;;4.50;3.60;;;11.70;70.60;;;-142.21;98.72;112049.66;5051563;28;20536;-71
2022/09/22 06:33:11;;;;;;;3.80;3.40;;;11.80;70.30;;;-142.21;98.96;112049.66;5042752;28;20512;-70
2022/09/22 06:35:41;;;;;;;5.07;4.07;;;11.90;71.40;;;-142.21;98.88;112049.66;5031638;28;20453;-70
2022/09/22 06:38:13;;;;;;;5.60;4.20;;;12.00;70.60;;;-142.21;98.70;112049.66;5027536;28;20533;-71
2022/09/22 06:40:42;;;;;;;6.43;4.03;;;12.10;70.50;;;-142.21;98.20;112049.66;5020122;28;20937;-70
2022/09/22 06:43:16;;;;;;;5.53;3.90;;;12.10;70.20;;;-142.21;97.87;112049.66;5031960;28;20544;-71
2022/09/22 06:45:46;;;;;;;6.50;3.80;;;12.20;70.00;;;-142.21;97.59;112049.66;5031911;28;20452;-71
2022/09/22 06:48:15;;;;;;;4.60;3.70;;;12.30;69.90;;;-142.21;97.16;112049.66;5032043;28;20790;-70
2022/09/22 06:50:48;;;;;;;6.30;4.33;;;12.40;69.70;;;-142.21;96.74;112049.66;5031561;28;20492;-71
2022/09/22 06:53:16;;;;;;;5.00;3.70;;;12.50;69.60;;;-142.21;96.29;112049.66;5032219;28;20893;-70
2022/09/22 06:55:43;;;;;;;5.50;4.10;;;12.60;69.30;;;-142.21;95.88;112049.66;5031787;28;20824;-71
2022/09/22 06:58:12;;;;;;;4.30;3.70;;;12.60;69.10;;;-142.21;95.73;112049.66;5032521;28;20796;-71
2022/09/22 07:00:42;;;;;;;3.77;3.40;;;12.70;69.00;;;-142.21;95.34;112049.66;5031731;28;20456;-71
2022/09/22 07:03:18;;;;;;;5.67;3.53;;;12.80;68.90;;;-142.21;95.76;112049.66;5031973;28;20463;-70
2022/09/22 07:05:53;;;;;;;4.63;3.57;;;12.90;69.20;;;-142.21;95.34;112049.66;5031779;28;20444;-71
2022/09/22 07:08:21;;;;;;;4.87;3.70;;;13.00;68.90;;;-142.21;95.23;112049.66;5031801;28;20912;-70
2022/09/22 07:10:55;;;;;;;4.73;3.20;;;13.10;68.80;;;-142.21;94.92;112049.66;5032418;28;20441;-71
2022/09/22 07:13:22;;;;;;;4.97;3.90;;;13.10;69.20;;;-142.21;94.42;112049.66;5031823;28;20448;-70
2022/09/22 07:15:50;;;;;;;4.50;4.10;;;13.20;68.40;;;-142.21;94.82;112049.66;5032425;28;20451;-71
2022/09/22 07:18:18;;;;;;;3.47;3.13;;;13.30;68.40;;;-142.21;94.46;112049.66;5031949;28;20471;-71
2022/09/22 07:20:46;;;;;;;4.00;3.60;;;13.40;68.30;;;-142.21;94.26;112049.66;5031540;28;20460;-71
2022/09/22 07:23:20;;;;;;;3.23;2.93;;;13.50;68.40;;;-142.21;93.56;112049.66;5031921;28;20455;-71
2022/09/22 07:25:55;;;;;;;3.90;3.47;;;13.60;67.90;;;-142.21;93.32;112049.66;5032363;28;20473;-71
2022/09/22 07:28:22;;;;;;;5.60;3.90;;;13.70;68.20;;;-142.21;92.44;112049.66;5031670;28;20921;-71
2022/09/22 07:30:49;;;;;;;6.10;3.47;;;13.80;67.60;;;-142.21;92.02;112049.66;5032023;28;20534;-71
2022/09/22 07:33:19;;;;;;;4.20;3.70;;;13.90;67.30;;;-142.21;92.42;112049.66;5042151;28;20480;-71
2022/09/22 07:35:46;;;;;;;6.33;3.93;;;14.00;67.60;;;-142.21;92.94;112049.66;5051358;28;20455;-71
2022/09/22 07:38:13;;;;;;;3.50;3.20;;;14.10;67.70;;;-142.21;92.64;112049.66;5051641;28;20526;-71
2022/09/22 07:40:40;;;;;;;3.90;3.50;;;14.10;67.50;;;-142.21;91.82;112049.66;5051399;28;20851;-71
2022/09/22 07:43:07;;;;;;;4.73;3.40;;;14.30;67.50;;;-142.21;91.48;112049.66;5052992;28;20498;-71
2022/09/22 07:45:34;;;;;;;5.03;3.90;;;14.40;67.20;;;-142.21;91.43;112049.66;5055383;28;20479;-71
2022/09/22 07:50:59;;;;;;;4.53;3.80;;;14.60;66.80;;;-142.21;89.40;112049.66;5055069;28;20923;-70
2022/09/22 07:53:26;;;;;;;3.50;3.20;;;14.70;66.30;;;-142.21;89.18;112049.66;5055137;28;20490;-70
2022/09/22 07:55:53;;;;;;;3.97;3.57;;;14.80;66.00;;;-142.21;88.60;112049.66;5055517;28;20450;-71
2022/09/22 07:58:20;;;;;;;5.97;3.13;;;14.90;65.70;;;-142.21;87.46;112049.66;5055767;28;20539;-70
2022/09/22 08:00:47;;;;;;;3.73;3.37;;;15.00;66.10;;;-142.21;86.06;112049.66;5054512;28;20447;-71
2022/09/22 08:03:15;;;;;;;3.60;2.83;;;15.10;64.80;;;-142.21;86.37;112049.66;5055269;28;20452;-70
2022/09/22 08:05:45;;;;;;;5.20;3.13;;;15.20;64.70;;;-142.21;86.85;112049.66;5054652;28;20799;-70
2022/09/22 08:08:15;;;;;;;4.30;3.30;;;15.30;65.10;;;-142.21;86.84;112049.66;5055103;28;20475;-71
2022/09/22 08:10:42;;;;;;;4.17;2.80;;;15.50;65.10;;;-142.21;84.95;112049.66;5054554;28;20451;-72
2022/09/22 08:13:10;;;;;;;3.63;3.33;;;15.60;64.40;;;-142.21;84.21;112049.66;5055653;28;20444;-71
2022/09/22 08:15:41;;;;;;;4.40;2.87;;;15.80;63.90;;;-142.21;83.46;112049.66;5054428;28;20454;-70
2022/09/22 08:18:08;;;;;;;3.40;3.00;;;15.90;63.50;;;-142.21;81.58;112049.66;5055298;28;21000;-71
2022/09/22 08:20:35;;;;;;;4.37;3.10;;;16.00;62.60;;;-142.21;81.70;112049.66;5054309;28;20454;-71
2022/09/22 08:23:04;;;;;;;5.20;3.07;;;16.10;62.50;;;-142.21;80.80;112049.66;5055325;28;20450;-72
2022/09/22 08:25:33;;;;;;;4.43;2.90;;;16.20;62.30;;;-142.21;80.14;112049.66;5054503;28;20561;-71
2022/09/22 08:28:01;;;;;;;3.97;2.90;;;16.30;61.80;;;-142.21;79.19;112049.66;5055399;28;20771;-71
2022/09/22 08:30:28;;;;;;;3.43;3.13;;;16.40;61.40;;;-142.21;78.08;112049.66;5054158;28;20465;-70
2022/09/22 08:32:55;;;;;;;4.17;3.37;;;16.50;61.90;;;-142.21;77.95;112049.66;5054828;28;20492;-71
2022/09/22 08:35:22;;;;;;;5.43;3.23;;;16.70;61.00;;;-142.21;74.88;112049.66;5054846;28;20444;-70
2022/09/22 08:37:50;;;;;;;3.80;3.33;;;16.70;60.00;;;-142.21;75.68;112049.66;5054537;28;20531;-71
2022/09/22 08:40:22;;;;;;;4.00;2.60;;;16.80;59.90;;;-142.21;77.05;112049.66;5055172;28;20450;-71
2022/09/22 08:42:54;;;;;;;3.40;2.80;;;17.00;60.20;;;-142.21;74.62;112049.66;5054414;28;20492;-71
2022/09/22 08:45:31;;;;;;;2.63;2.43;;;17.10;59.50;;;-142.21;74.02;112049.66;5054788;28;20541;-71
2022/09/22 08:53:50;;;;;;;3.57;2.40;;;17.50;58.80;;;-142.21;71.26;112049.66;5053667;28;20412;-71
2022/09/22 08:56:28;;;;;;;2.40;2.20;;;17.60;59.00;;;-142.21;69.28;112049.66;5054719;28;20872;-71
2022/09/22 08:59:07;;;;;;;3.43;2.43;;;17.80;57.80;;;-142.21;67.19;112049.66;5054553;28;20443;-71
2022/09/22 09:01:56;;;;;;;4.00;2.60;;;17.90;57.20;;;-142.21;68.25;112049.66;5053801;28;20931;-70
2022/09/22 09:05:17;;;;;;;3.47;2.17;;;18.10;57.10;;;-142.21;66.85;112049.66;5054319;28;20492;-71
2022/09/22 09:07:57;;;;;;;2.80;2.50;;;18.20;56.50;;;-142.21;68.31;112049.66;5050205;28;20462;-71
2022/09/22 09:10:46;;;;;;;2.20;2.00;;;18.40;57.30;;;-142.21;67.89;112049.66;5054722;28;20435;-70
2022/09/22 09:13:47;;;;;;;2.20;2.00;;;18.60;57.40;;;-142.21;64.32;112049.66;5054147;28;20527;-70
2022/09/22 09:16:42;;;;;;;2.63;2.40;;;18.80;56.00;;;-142.21;63.44;112049.66;5054439;28;20444;-71
2022/09/22 09:19:18;;;;;;;2.53;2.23;;;18.90;55.80;;;-142.21;59.66;112049.66;5053951;28;20502;-71
2022/09/22 09:21:51;;;;;;;2.33;2.07;;;19.00;54.50;;;-142.21;64.00;112049.66;5053539;28;20428;-71
2022/09/22 09:24:33;;;;;;;2.67;2.37;;;19.10;55.70;;;-142.21;62.55;112049.66;5053806;28;21033;-70
2022/09/22 09:27:11;;;;;;;2.70;2.23;;;19.30;55.10;;;-142.21;61.71;112049.66;5053882;28;20911;-70
2022/09/22 09:29:50;;;;;;;2.07;1.87;;;19.40;55.40;;;-142.21;60.87;112049.66;5053371;28;20431;-70
2022/09/22 09:32:36;;;;;;;2.47;2.00;;;19.60;55.10;;;-142.21;57.38;112049.66;5053910;28;20245;-71
2022/09/22 09:35:05;;;;;;;2.67;2.33;;;19.80;53.90;;;-142.21;52.28;112049.66;5071504;28;20470;-70
2022/09/22 09:37:33;;;;;;;2.93;1.90;;;19.90;52.60;;;-142.21;55.30;112049.66;5073285;28;20205;-72
2022/09/22 09:40:04;;;;;;;1.80;1.70;;;20.00;53.00;;;-142.21;53.83;112049.66;5073994;28;20443;-71
2022/09/22 09:42:35;;;;;;;2.63;1.60;;;20.10;52.60;;;-142.21;51.55;112049.66;5072921;28;20190;-70
2022/09/22 09:45:05;;;;;;;1.70;1.60;;;20.20;51.80;;;-142.21;51.58;112049.66;5073901;28;20205;-70
2022/09/22 09:48:09;;;;;;;2.27;1.87;;;20.40;51.70;;;-142.21;52.52;112049.66;5072576;28;20224;-70
2022/09/22 09:50:38;;;;;;;3.10;1.70;;;20.60;51.70;;;-142.21;50.28;112049.66;5072966;28;20634;-70
2022/09/22 09:53:06;;;;;;;3.83;1.63;;;20.70;51.30;;;-142.21;51.27;112049.66;5073442;28;20213;-70
2022/09/22 09:55:34;;;;;;;1.40;1.30;;;20.90;51.50;;;-142.21;47.73;112049.66;5072910;28;20308;-70
2022/09/22 09:58:09;;;;;;;2.03;1.43;;;21.10;50.40;;;-142.21;48.44;112049.66;5073522;28;20205;-71
2022/09/22 10:00:56;;;;;;;1.50;1.40;;;21.20;50.10;;;-142.21;47.00;112049.66;5072983;28;20243;-72
2022/09/22 10:03:30;;;;;;;3.37;1.63;;;21.30;49.10;;;-142.21;46.31;112049.66;5073054;28;20208;-70
2022/09/22 10:06:01;;;;;;;1.60;1.50;;;21.50;49.40;;;-142.21;45.45;112049.66;5072203;28;20297;-70
2022/09/22 10:08:35;;;;;;;1.07;1.00;;;21.60;49.00;;;-142.21;43.30;112049.66;5073391;28;20224;-71
2022/09/22 10:11:04;;;;;;;1.23;1.13;;;21.70;47.90;;;-142.21;43.44;112049.66;5073063;28;20554;-71
2022/09/22 10:13:35;;;;;;;1.30;1.20;;;21.80;47.80;;;-142.21;42.77;112049.66;5072566;28;20307;-70
2022/09/22 10:16:24;;;;;;;1.10;1.00;;;21.80;47.30;;;-142.21;42.77;112049.66;5072577;28;20649;-71
2022/09/22 10:19:19;;;;;;;0.80;0.80;;;22.00;46.80;;;-142.21;41.14;112049.66;5069153;28;20699;-71
2022/09/22 10:21:46;;;;;;;1.27;1.17;;;22.10;45.80;;;-142.21;41.46;112049.66;5068940;28;20205;-72
2022/09/22 10:24:29;;;;;;;1.30;1.20;;;22.20;46.50;;;-142.21;41.46;112049.66;5072825;28;20197;-70
2022/09/22 10:26:56;;;;;;;1.63;1.50;;;22.30;45.70;;;-142.21;40.91;112049.66;5072722;28;20254;-72
2022/09/22 10:29:25;;;;;;;1.43;1.10;;;22.50;45.90;;;-142.21;40.71;112049.66;5072924;28;20589;-71